Time;durP1;ratioP1;P1;durP2;ratioP2;P2;SDS_P1;SDS_P2;PMS_P1;PMS_P2;Temp;Humidity;BMP_temperature;BMP_pressure;BME280_temperature;BME280_humidity;BME280_pressure;Samples;Min_cycle;Max_cycle;Signal;HPM_P1;HPM_P2
2022/07/19 00:01:45;;;;;;;0.08;0.08;;;21.20;68.10;;;;;;5031247;28;20847;-68
2022/07/19 00:04:11;;;;;;;0.00;0.00;;;21.20;67.70;;;;;;5032324;28;20405;-67
2022/07/19 00:06:37;;;;;;;0.00;0.00;;;21.20;68.00;;;;;;5050018;28;20033;-67
2022/07/19 00:09:04;;;;;;;0.00;0.00;;;21.10;68.10;;;;;;5049536;28;20037;-67
2022/07/19 00:11:29;;;;;;;0.00;0.00;;;21.10;67.90;;;;;;5049675;28;20405;-67
2022/07/19 00:13:55;;;;;;;0.00;0.00;;;21.10;68.20;;;;;;5049406;28;20045;-67
2022/07/19 00:16:21;;;;;;;0.10;0.10;;;21.10;68.60;;;;;;5049227;28;20114;-67
2022/07/19 00:18:46;;;;;;;0.00;0.00;;;21.10;68.90;;;;;;5048742;28;20045;-67
2022/07/19 00:21:12;;;;;;;0.00;0.00;;;21.10;69.60;;;;;;5049125;28;20390;-68
2022/07/19 00:23:37;;;;;;;0.00;0.00;;;21.10;69.40;;;;;;5049147;28;20065;-67
2022/07/19 00:26:04;;;;;;;0.10;0.10;;;21.00;69.90;;;;;;5049287;28;20455;-67
2022/07/19 00:28:30;;;;;;;0.00;0.00;;;21.00;69.70;;;;;;5049373;28;20044;-67
2022/07/19 00:30:56;;;;;;;0.00;0.00;;;21.00;69.50;;;;;;5049107;28;20099;-67
2022/07/19 00:33:21;;;;;;;0.00;0.00;;;21.00;68.90;;;;;;5048928;28;20075;-67
2022/07/19 00:35:47;;;;;;;0.00;0.00;;;20.90;68.90;;;;;;5048938;28;20045;-67
2022/07/19 00:38:14;;;;;;;0.00;0.00;;;20.90;69.50;;;;;;5049441;28;20073;-67
2022/07/19 00:40:41;;;;;;;0.00;0.00;;;20.90;69.60;;;;;;5048436;28;20128;-67
2022/07/19 00:43:10;;;;;;;0.00;0.00;;;20.80;69.70;;;;;;5048873;28;20386;-67
2022/07/19 00:45:37;;;;;;;0.00;0.00;;;20.80;70.20;;;;;;5048683;28;20048;-68
2022/07/19 00:48:03;;;;;;;0.00;0.00;;;20.70;69.90;;;;;;5049163;28;20041;-67
2022/07/19 00:50:29;;;;;;;0.00;0.00;;;20.70;69.70;;;;;;5048881;28;20472;-68
2022/07/19 00:53:00;;;;;;;0.00;0.00;;;20.70;70.00;;;;;;5048709;28;20505;-67
2022/07/19 00:55:28;;;;;;;0.28;0.28;;;20.70;69.40;;;;;;5049155;28;20501;-67
2022/07/19 00:57:58;;;;;;;0.00;0.00;;;20.70;69.90;;;;;;5049239;28;20041;-67
2022/07/19 01:00:26;;;;;;;0.00;0.00;;;20.70;69.90;;;;;;5048461;28;20044;-67
2022/07/19 01:02:52;;;;;;;0.00;0.00;;;20.60;70.10;;;;;;5049005;28;20445;-67
2022/07/19 01:05:18;;;;;;;0.00;0.00;;;20.60;70.10;;;;;;5048388;28;20045;-67
2022/07/19 01:07:45;;;;;;;0.20;0.20;;;20.60;70.80;;;;;;5048724;28;20055;-67
2022/07/19 01:10:15;;;;;;;0.30;0.30;;;20.50;70.70;;;;;;5048691;28;20048;-67
2022/07/19 01:12:41;;;;;;;0.00;0.00;;;20.50;70.20;;;;;;5048526;28;20045;-67
2022/07/19 01:15:17;;;;;;;0.00;0.00;;;20.50;69.70;;;;;;5049028;28;20411;-67
2022/07/19 01:17:43;;;;;;;0.00;0.00;;;20.50;69.50;;;;;;5036307;28;20057;-68
2022/07/19 01:20:10;;;;;;;0.00;0.00;;;20.60;69.40;;;;;;5048835;28;20493;-67
2022/07/19 01:22:35;;;;;;;0.00;0.00;;;20.60;69.70;;;;;;5048405;28;20037;-68
2022/07/19 01:25:01;;;;;;;0.30;0.25;;;20.60;70.00;;;;;;5048775;28;20040;-67
2022/07/19 01:27:26;;;;;;;0.00;0.00;;;20.60;69.90;;;;;;5048478;28;20080;-67
2022/07/19 01:29:52;;;;;;;0.00;0.00;;;20.50;70.20;;;;;;5048020;28;20045;-66
2022/07/19 01:32:17;;;;;;;0.00;0.00;;;20.50;70.60;;;;;;5048201;28;20071;-67
2022/07/19 01:34:43;;;;;;;0.00;0.00;;;20.50;70.40;;;;;;5030594;28;20119;-66
2022/07/19 01:37:09;;;;;;;0.00;0.00;;;20.50;70.70;;;;;;5048015;28;20122;-67
2022/07/19 01:39:34;;;;;;;0.00;0.00;;;20.50;70.70;;;;;;5048288;28;20049;-67
2022/07/19 01:42:00;;;;;;;0.00;0.00;;;20.50;71.00;;;;;;5030514;28;20461;-67
2022/07/19 01:44:26;;;;;;;0.00;0.00;;;20.40;70.70;;;;;;5048601;28;20032;-67
2022/07/19 01:46:51;;;;;;;0.00;0.00;;;20.40;70.50;;;;;;5048325;28;20049;-67
2022/07/19 01:49:17;;;;;;;0.00;0.00;;;20.40;70.30;;;;;;5047672;28;20037;-68
2022/07/19 01:51:42;;;;;;;0.00;0.00;;;20.40;70.00;;;;;;5047824;28;20041;-67
2022/07/19 01:54:08;;;;;;;0.00;0.00;;;20.40;70.30;;;;;;5051226;28;20131;-67
2022/07/19 01:56:33;;;;;;;0.00;0.00;;;20.40;69.90;;;;;;5051911;28;20063;-66
2022/07/19 01:58:59;;;;;;;0.00;0.00;;;20.30;70.50;;;;;;5052261;28;20131;-67
2022/07/19 02:01:25;;;;;;;0.00;0.00;;;20.30;70.90;;;;;;5051751;28;20052;-67
2022/07/19 02:03:50;;;;;;;0.00;0.00;;;20.20;71.30;;;;;;5052002;28;20489;-67
2022/07/19 02:06:16;;;;;;;0.00;0.00;;;20.30;70.90;;;;;;5050234;28;20055;-67
2022/07/19 02:08:42;;;;;;;0.00;0.00;;;20.20;71.00;;;;;;5051849;28;20120;-68
2022/07/19 02:13:52;;;;;;;0.00;0.00;;;20.20;70.30;;;;;;5051892;28;20048;-68
2022/07/19 02:16:18;;;;;;;0.00;0.00;;;20.20;70.00;;;;;;5051738;28;20040;-67
2022/07/19 02:18:43;;;;;;;0.00;0.00;;;20.20;70.30;;;;;;5050523;28;20136;-68
2022/07/19 02:21:09;;;;;;;0.00;0.00;;;20.10;70.20;;;;;;5051138;28;20124;-67
2022/07/19 02:23:35;;;;;;;0.00;0.00;;;20.10;70.20;;;;;;5033793;28;20486;-67
2022/07/19 02:26:00;;;;;;;0.00;0.00;;;20.10;71.00;;;;;;5051845;28;20123;-67
2022/07/19 02:28:26;;;;;;;0.00;0.00;;;20.00;71.30;;;;;;5051644;28;20036;-68
2022/07/19 02:30:51;;;;;;;0.00;0.00;;;20.00;70.90;;;;;;5050934;28;20487;-67
2022/07/19 02:33:17;;;;;;;0.00;0.00;;;20.00;70.60;;;;;;5050535;28;20473;-67
2022/07/19 02:35:43;;;;;;;0.00;0.00;;;19.90;70.40;;;;;;5016977;28;20063;-67
2022/07/19 02:38:08;;;;;;;0.00;0.00;;;19.90;70.20;;;;;;5051700;28;20037;-67
2022/07/19 02:40:34;;;;;;;0.00;0.00;;;19.90;70.60;;;;;;5050742;28;20056;-68
2022/07/19 02:42:59;;;;;;;0.00;0.00;;;20.00;70.40;;;;;;5051313;28;20045;-67
2022/07/19 02:45:25;;;;;;;0.00;0.00;;;19.90;69.90;;;;;;5051150;28;20048;-67
2022/07/19 02:47:50;;;;;;;0.00;0.00;;;19.90;70.10;;;;;;5051521;28;20037;-67
2022/07/19 02:50:16;;;;;;;0.00;0.00;;;19.90;71.30;;;;;;5050545;28;20041;-68
2022/07/19 02:52:42;;;;;;;0.00;0.00;;;19.90;71.40;;;;;;5050230;28;20033;-67
2022/07/19 02:55:08;;;;;;;0.00;0.00;;;19.80;70.90;;;;;;5051005;28;20041;-67
2022/07/19 02:57:33;;;;;;;0.00;0.00;;;19.80;70.80;;;;;;5051066;28;20041;-67
2022/07/19 02:59:59;;;;;;;0.00;0.00;;;19.80;71.00;;;;;;5051455;28;20033;-67
2022/07/19 03:02:24;;;;;;;0.00;0.00;;;19.80;70.80;;;;;;5033909;28;20049;-68
2022/07/19 03:04:50;;;;;;;0.00;0.00;;;19.80;71.10;;;;;;5051691;28;20744;-68
2022/07/19 03:07:16;;;;;;;0.00;0.00;;;19.80;71.40;;;;;;5050920;28;20052;-67
2022/07/19 03:09:42;;;;;;;0.00;0.00;;;19.70;71.50;;;;;;5051556;28;20120;-66
2022/07/19 03:12:07;;;;;;;0.00;0.00;;;19.70;71.10;;;;;;5051623;28;20033;-68
2022/07/19 03:14:33;;;;;;;0.00;0.00;;;19.70;71.00;;;;;;5051783;28;20044;-67
2022/07/19 03:16:59;;;;;;;0.00;0.00;;;19.70;71.30;;;;;;5051318;28;20111;-67
2022/07/19 03:19:26;;;;;;;0.00;0.00;;;19.70;71.40;;;;;;5051619;28;20059;-67
2022/07/19 03:21:53;;;;;;;0.00;0.00;;;19.60;71.20;;;;;;5031955;28;20116;-67
2022/07/19 03:24:18;;;;;;;0.00;0.00;;;19.70;71.30;;;;;;5033779;28;20453;-67
2022/07/19 03:26:44;;;;;;;0.00;0.00;;;19.60;71.50;;;;;;5051229;28;20043;-67
2022/07/19 03:29:10;;;;;;;0.00;0.00;;;19.70;71.40;;;;;;5051236;28;20048;-67
2022/07/19 03:31:36;;;;;;;0.00;0.00;;;19.60;71.20;;;;;;5033877;28;20451;-67
2022/07/19 03:34:01;;;;;;;0.00;0.00;;;19.60;71.10;;;;;;5050978;28;20434;-67
2022/07/19 03:36:27;;;;;;;0.00;0.00;;;19.60;71.00;;;;;;5032848;28;20084;-67
2022/07/19 03:38:53;;;;;;;0.00;0.00;;;19.60;71.50;;;;;;5051059;28;20505;-67
2022/07/19 03:41:19;;;;;;;0.00;0.00;;;19.70;71.50;;;;;;5050639;28;20055;-67
2022/07/19 03:43:44;;;;;;;0.00;0.00;;;19.60;71.30;;;;;;5050842;28;20045;-66
2022/07/19 03:46:10;;;;;;;0.00;0.00;;;19.60;71.10;;;;;;5051048;28;20466;-67
2022/07/19 03:48:35;;;;;;;0.08;0.08;;;19.60;71.00;;;;;;5051414;28;20508;-67
2022/07/19 03:51:01;;;;;;;0.00;0.00;;;19.60;70.90;;;;;;5050819;28;20449;-67
2022/07/19 03:53:27;;;;;;;0.00;0.00;;;19.60;71.30;;;;;;5050706;28;20072;-67
2022/07/19 03:55:52;;;;;;;0.10;0.10;;;19.60;71.20;;;;;;5050320;28;20079;-67
2022/07/19 03:58:18;;;;;;;0.00;0.00;;;19.60;70.70;;;;;;5050747;28;20451;-67
2022/07/19 04:00:45;;;;;;;0.00;0.00;;;19.60;70.50;;;;;;5050107;28;20041;-67
2022/07/19 04:03:11;;;;;;;0.00;0.00;;;19.60;70.50;;;;;;5032743;28;20087;-67
2022/07/19 04:05:37;;;;;;;0.00;0.00;;;19.60;70.30;;;;;;5031828;28;20053;-68
2022/07/19 04:08:03;;;;;;;0.00;0.00;;;19.60;70.50;;;;;;5032046;28;20040;-67
2022/07/19 04:10:29;;;;;;;0.00;0.00;;;19.60;70.50;;;;;;5031797;28;20037;-67
2022/07/19 04:12:54;;;;;;;0.00;0.00;;;19.60;70.40;;;;;;5049380;28;20091;-67
2022/07/19 04:15:20;;;;;;;0.00;0.00;;;19.50;70.60;;;;;;5049180;28;20114;-67
2022/07/19 04:17:46;;;;;;;0.00;0.00;;;19.60;70.20;;;;;;5048837;28;20064;-67
2022/07/19 04:20:12;;;;;;;0.00;0.00;;;19.60;70.30;;;;;;5030406;28;20059;-67
2022/07/19 04:22:37;;;;;;;0.00;0.00;;;19.60;70.20;;;;;;5030467;28;20041;-67
2022/07/19 04:25:03;;;;;;;0.00;0.00;;;19.60;70.20;;;;;;5049315;28;20066;-67
2022/07/19 04:27:30;;;;;;;0.00;0.00;;;19.60;70.00;;;;;;5041309;28;20699;-67
2022/07/19 04:29:56;;;;;;;0.00;0.00;;;19.60;69.80;;;;;;5049105;28;20048;-68
2022/07/19 04:32:22;;;;;;;0.00;0.00;;;19.60;69.80;;;;;;5048732;28;20041;-67
2022/07/19 04:34:48;;;;;;;0.00;0.00;;;19.60;69.70;;;;;;5048556;28;20120;-67
2022/07/19 04:37:14;;;;;;;0.00;0.00;;;19.70;70.00;;;;;;5048763;28;20179;-67
2022/07/19 04:39:39;;;;;;;0.00;0.00;;;19.70;69.80;;;;;;5049483;28;20155;-68
2022/07/19 04:42:05;;;;;;;0.00;0.00;;;19.60;69.80;;;;;;5048243;28;20049;-67
2022/07/19 04:44:30;;;;;;;0.00;0.00;;;19.60;69.70;;;;;;5048078;28;20044;-67
2022/07/19 04:46:56;;;;;;;0.00;0.00;;;19.60;69.90;;;;;;5028139;28;20226;-68
2022/07/19 04:49:22;;;;;;;0.00;0.00;;;19.60;69.80;;;;;;5046918;28;20048;-67
2022/07/19 04:51:47;;;;;;;0.00;0.00;;;19.60;69.60;;;;;;5048284;28;20037;-67
2022/07/19 04:54:13;;;;;;;0.00;0.00;;;19.60;69.90;;;;;;5052751;28;20055;-67
2022/07/19 04:56:38;;;;;;;0.45;0.35;;;19.60;69.90;;;;;;5047216;28;20033;-68
2022/07/19 04:59:04;;;;;;;0.00;0.00;;;19.60;69.70;;;;;;5047685;28;20402;-67
2022/07/19 05:01:30;;;;;;;0.00;0.00;;;19.70;69.70;;;;;;5046893;28;20109;-67
2022/07/19 05:03:56;;;;;;;0.00;0.00;;;19.70;69.60;;;;;;5044787;28;20057;-67
2022/07/19 05:06:24;;;;;;;0.00;0.00;;;19.70;69.50;;;;;;5046467;28;20040;-68
2022/07/19 05:08:51;;;;;;;0.00;0.00;;;19.80;69.50;;;;;;5045692;28;20514;-67
2022/07/19 05:11:17;;;;;;;0.00;0.00;;;19.80;69.30;;;;;;5027490;28;20158;-67
2022/07/19 05:13:43;;;;;;;0.00;0.00;;;19.80;69.20;;;;;;5044988;28;20576;-67
2022/07/19 05:16:08;;;;;;;0.00;0.00;;;19.90;69.10;;;;;;5020267;28;20576;-68
2022/07/19 05:18:34;;;;;;;0.00;0.00;;;19.90;69.00;;;;;;5045681;28;20095;-68
2022/07/19 05:21:00;;;;;;;0.00;0.00;;;20.00;69.00;;;;;;5046266;28;20083;-68
2022/07/19 05:23:26;;;;;;;0.00;0.00;;;19.90;69.00;;;;;;5045244;28;20037;-67
2022/07/19 05:25:51;;;;;;;0.00;0.00;;;20.00;69.00;;;;;;5048517;28;20037;-67
2022/07/19 05:28:17;;;;;;;0.00;0.00;;;20.00;69.00;;;;;;5049877;28;20461;-68
2022/07/19 05:30:43;;;;;;;0.00;0.00;;;20.10;69.10;;;;;;5032937;28;20139;-67
2022/07/19 05:33:09;;;;;;;0.00;0.00;;;20.10;69.20;;;;;;5049633;28;20600;-67
2022/07/19 05:35:34;;;;;;;0.00;0.00;;;20.10;69.30;;;;;;5032056;28;20045;-67
2022/07/19 05:38:00;;;;;;;0.00;0.00;;;20.20;69.30;;;;;;5032166;28;20602;-67
2022/07/19 05:40:26;;;;;;;0.00;0.00;;;20.20;69.40;;;;;;5050147;28;20642;-68
2022/07/19 05:42:51;;;;;;;0.00;0.00;;;20.30;69.50;;;;;;5032836;28;20057;-67
2022/07/19 05:45:17;;;;;;;0.00;0.00;;;20.40;69.60;;;;;;5049985;28;20041;-68
2022/07/19 05:47:42;;;;;;;0.00;0.00;;;20.40;69.20;;;;;;5049556;28;20040;-67
2022/07/19 05:50:08;;;;;;;0.00;0.00;;;20.50;69.30;;;;;;5052519;28;20395;-67
2022/07/19 05:52:34;;;;;;;0.00;0.00;;;20.50;69.30;;;;;;5050266;28;20040;-66
2022/07/19 05:55:00;;;;;;;0.00;0.00;;;20.60;69.10;;;;;;5024138;28;20426;-66
2022/07/19 05:57:26;;;;;;;0.00;0.00;;;20.80;69.00;;;;;;5019402;28;20076;-67
2022/07/19 05:59:53;;;;;;;0.00;0.00;;;20.80;68.80;;;;;;5028916;28;20053;-67
2022/07/19 06:02:19;;;;;;;0.00;0.00;;;20.80;69.00;;;;;;5015234;28;20080;-67
2022/07/19 06:04:51;;;;;;;0.00;0.00;;;20.90;68.70;;;;;;5031210;28;20140;-68
2022/07/19 06:07:17;;;;;;;0.00;0.00;;;21.00;68.90;;;;;;5031150;28;20061;-68
2022/07/19 06:09:43;;;;;;;0.00;0.00;;;21.00;69.50;;;;;;5031050;28;20053;-68
2022/07/19 06:12:08;;;;;;;0.00;0.00;;;21.00;69.30;;;;;;5031545;28;20044;-68
2022/07/19 06:14:34;;;;;;;0.00;0.00;;;21.10;69.40;;;;;;5049026;28;20502;-67
2022/07/19 06:17:00;;;;;;;0.00;0.00;;;21.10;69.20;;;;;;5041421;28;20149;-66
2022/07/19 06:19:26;;;;;;;0.00;0.00;;;21.20;69.10;;;;;;5019496;28;20145;-67
2022/07/19 06:21:52;;;;;;;0.00;0.00;;;21.20;69.10;;;;;;5038166;28;20075;-67
2022/07/19 06:24:18;;;;;;;0.00;0.00;;;21.30;69.10;;;;;;5039396;28;20545;-67
2022/07/19 06:26:44;;;;;;;0.00;0.00;;;21.30;69.10;;;;;;5046234;28;20123;-67
2022/07/19 06:29:10;;;;;;;0.00;0.00;;;21.30;68.80;;;;;;5049611;28;20120;-68
2022/07/19 06:31:35;;;;;;;0.00;0.00;;;21.50;69.00;;;;;;5049692;28;20059;-67
2022/07/19 06:34:01;;;;;;;0.00;0.00;;;21.50;68.70;;;;;;5050816;28;20413;-67
2022/07/19 06:36:27;;;;;;;0.00;0.00;;;21.50;68.90;;;;;;5016190;28;20068;-67
2022/07/19 06:38:53;;;;;;;0.00;0.00;;;21.60;68.70;;;;;;5050507;28;20095;-68
2022/07/19 06:41:19;;;;;;;0.00;0.00;;;21.60;68.60;;;;;;5050785;28;20037;-67
2022/07/19 06:43:45;;;;;;;0.00;0.00;;;21.70;69.10;;;;;;5051008;28;20048;-68
2022/07/19 06:46:11;;;;;;;0.00;0.00;;;21.70;68.70;;;;;;5050704;28;20041;-68
2022/07/19 06:48:37;;;;;;;0.10;0.10;;;21.80;68.80;;;;;;5050297;28;20047;-67
2022/07/19 06:51:04;;;;;;;0.00;0.00;;;21.80;68.90;;;;;;5049782;28;20053;-67
2022/07/19 06:53:30;;;;;;;0.00;0.00;;;21.90;68.40;;;;;;5051082;28;20037;-68
2022/07/19 06:55:56;;;;;;;0.00;0.00;;;22.00;68.30;;;;;;5037745;28;20044;-68
2022/07/19 06:58:21;;;;;;;0.00;0.00;;;22.10;68.00;;;;;;5049876;28;20099;-67
2022/07/19 07:00:48;;;;;;;0.00;0.00;;;22.10;68.20;;;;;;5050405;28;20482;-67
2022/07/19 07:03:15;;;;;;;0.00;0.00;;;22.20;68.20;;;;;;5032511;28;20410;-67
2022/07/19 07:05:41;;;;;;;0.00;0.00;;;22.30;68.20;;;;;;5050634;28;20068;-67
2022/07/19 07:08:06;;;;;;;0.00;0.00;;;22.40;68.30;;;;;;5050020;28;20037;-67
2022/07/19 07:10:32;;;;;;;0.00;0.00;;;22.50;68.40;;;;;;5050558;28;20060;-68
2022/07/19 07:12:58;;;;;;;0.00;0.00;;;22.60;68.10;;;;;;5050698;28;20542;-67
2022/07/19 07:15:23;;;;;;;0.00;0.00;;;22.70;68.00;;;;;;5032968;28;20363;-68
2022/07/19 07:17:49;;;;;;;0.00;0.00;;;22.80;67.90;;;;;;5050548;28;20053;-67
2022/07/19 07:20:15;;;;;;;0.00;0.00;;;22.80;67.60;;;;;;5050477;28;20399;-68
2022/07/19 07:22:40;;;;;;;0.00;0.00;;;22.90;67.40;;;;;;5049984;28;20056;-67
2022/07/19 07:25:07;;;;;;;0.00;0.00;;;23.00;67.30;;;;;;5043390;28;20057;-67
2022/07/19 07:27:32;;;;;;;0.00;0.00;;;23.10;67.10;;;;;;5049401;28;20086;-68
2022/07/19 07:29:58;;;;;;;0.00;0.00;;;23.20;67.40;;;;;;5049314;28;20132;-67
2022/07/19 07:32:26;;;;;;;0.00;0.00;;;23.20;66.90;;;;;;5015585;28;20124;-68
2022/07/19 07:34:52;;;;;;;0.00;0.00;;;23.40;66.80;;;;;;5049029;28;20057;-67
2022/07/19 07:37:18;;;;;;;0.00;0.00;;;23.40;66.70;;;;;;5048746;28;20489;-67
2022/07/19 07:39:43;;;;;;;0.00;0.00;;;23.50;67.20;;;;;;5049354;28;20044;-67
2022/07/19 07:42:09;;;;;;;0.00;0.00;;;23.60;66.50;;;;;;5048682;28;20033;-67
2022/07/19 07:44:35;;;;;;;0.00;0.00;;;23.70;64.80;;;;;;5048225;28;20124;-68
2022/07/19 07:47:00;;;;;;;0.00;0.00;;;23.80;65.20;;;;;;5048968;28;20083;-68
2022/07/19 07:49:26;;;;;;;0.00;0.00;;;23.90;65.40;;;;;;5049006;28;20049;-67
2022/07/19 07:51:52;;;;;;;0.00;0.00;;;24.00;65.10;;;;;;5047460;28;20048;-67
2022/07/19 07:54:17;;;;;;;0.05;0.05;;;24.10;64.40;;;;;;5048179;28;20064;-67
2022/07/19 07:56:43;;;;;;;0.00;0.00;;;24.20;63.80;;;;;;5031181;28;20041;-68
2022/07/19 07:59:09;;;;;;;0.00;0.00;;;24.30;64.30;;;;;;5029968;28;20060;-68
2022/07/19 08:01:37;;;;;;;0.08;0.08;;;24.40;64.10;;;;;;5049003;28;20485;-68
2022/07/19 08:04:03;;;;;;;0.00;0.00;;;24.50;63.60;;;;;;5048189;28;20057;-67
2022/07/19 08:06:29;;;;;;;0.00;0.00;;;24.60;63.20;;;;;;5048790;28;20041;-68
2022/07/19 08:08:55;;;;;;;0.20;0.20;;;24.70;62.60;;;;;;5046189;28;20101;-67
2022/07/19 08:11:30;;;;;;;0.00;0.00;;;24.80;62.50;;;;;;5084899;27;20483;-66
2022/07/19 08:13:55;;;;;;;0.10;0.10;;;24.90;62.20;;;;;;5080838;28;20079;-67
2022/07/19 08:16:21;;;;;;;0.00;0.00;;;25.00;62.40;;;;;;5084575;28;20515;-66
2022/07/19 08:18:47;;;;;;;0.00;0.00;;;25.10;61.30;;;;;;5083024;28;20084;-66
2022/07/19 08:21:12;;;;;;;0.00;0.00;;;25.10;61.00;;;;;;5086197;28;20040;-65
2022/07/19 08:23:41;;;;;;;0.00;0.00;;;25.30;62.10;;;;;;5084882;28;20547;-66
2022/07/19 08:26:07;;;;;;;0.00;0.00;;;25.30;62.30;;;;;;5085037;28;20048;-66
2022/07/19 08:28:33;;;;;;;0.00;0.00;;;25.40;61.00;;;;;;5085873;28;20036;-65
2022/07/19 08:30:58;;;;;;;0.00;0.00;;;25.50;61.10;;;;;;5086112;28;20042;-66
2022/07/19 08:33:24;;;;;;;0.00;0.00;;;25.60;61.50;;;;;;5084294;28;20094;-66
2022/07/19 08:35:51;;;;;;;0.22;0.10;;;25.70;61.70;;;;;;5084654;28;20469;-66
2022/07/19 08:38:16;;;;;;;0.00;0.00;;;25.80;61.50;;;;;;5075679;28;20055;-66
2022/07/19 08:40:43;;;;;;;0.00;0.00;;;25.90;60.20;;;;;;5082152;28;20045;-66
2022/07/19 08:43:10;;;;;;;0.00;0.00;;;26.00;60.20;;;;;;5084696;28;20119;-65
2022/07/19 08:45:37;;;;;;;0.00;0.00;;;26.20;59.70;;;;;;5084129;28;20463;-65
2022/07/19 08:48:05;;;;;;;0.00;0.00;;;26.30;59.70;;;;;;5056382;28;20088;-66
2022/07/19 08:50:33;;;;;;;0.00;0.00;;;26.40;59.00;;;;;;5065205;28;20525;-65
2022/07/19 08:52:59;;;;;;;0.00;0.00;;;26.50;59.20;;;;;;5065370;28;20052;-65
2022/07/19 08:55:25;;;;;;;0.10;0.10;;;26.60;58.60;;;;;;5077822;28;20061;-66
2022/07/19 08:57:57;;;;;;;0.00;0.00;;;26.70;56.40;;;;;;5084455;28;20043;-66
2022/07/19 09:00:26;;;;;;;0.00;0.00;;;26.80;55.70;;;;;;5080272;28;20059;-66
2022/07/19 09:03:01;;;;;;;0.20;0.10;;;26.90;56.00;;;;;;5073349;28;20040;-66
2022/07/19 09:05:28;;;;;;;0.00;0.00;;;27.00;56.70;;;;;;5072963;28;20190;-66
2022/07/19 09:08:13;;;;;;;0.00;0.00;;;27.10;55.60;;;;;;5073093;28;20497;-66
2022/07/19 09:13:31;;;;;;;0.00;0.00;;;27.30;55.30;;;;;;5071470;28;20132;-67
2022/07/19 09:15:57;;;;;;;0.00;0.00;;;27.40;54.20;;;;;;5068413;28;20124;-66
2022/07/19 09:18:30;;;;;;;0.00;0.00;;;27.50;54.50;;;;;;5075580;28;20693;-65
2022/07/19 09:21:02;;;;;;;0.00;0.00;;;27.60;55.80;;;;;;5075746;28;20412;-66
2022/07/19 09:23:28;;;;;;;0.00;0.00;;;27.70;55.20;;;;;;5049819;28;20054;-66
2022/07/19 09:25:55;;;;;;;0.00;0.00;;;27.80;53.30;;;;;;5072530;28;20045;-66
2022/07/19 09:28:23;;;;;;;0.00;0.00;;;28.00;53.30;;;;;;5058646;28;20053;-66
2022/07/19 09:30:54;;;;;;;0.00;0.00;;;28.00;52.90;;;;;;5068735;28;20047;-67
2022/07/19 09:33:24;;;;;;;0.00;0.00;;;28.10;50.90;;;;;;5070994;28;20135;-67
2022/07/19 09:35:52;;;;;;;0.00;0.00;;;28.20;51.60;;;;;;5071108;28;20051;-67
2022/07/19 09:38:24;;;;;;;0.00;0.00;;;28.30;51.00;;;;;;5070219;28;20599;-67
2022/07/19 09:40:51;;;;;;;0.00;0.00;;;28.40;51.40;;;;;;5066550;28;20045;-67
2022/07/19 09:43:19;;;;;;;0.00;0.00;;;28.50;51.20;;;;;;5051814;28;20045;-67
2022/07/19 09:45:45;;;;;;;0.00;0.00;;;28.60;50.50;;;;;;5070550;28;20086;-66
2022/07/19 09:48:10;;;;;;;0.00;0.00;;;28.70;50.70;;;;;;5070668;28;20040;-66
2022/07/19 09:50:36;;;;;;;0.00;0.00;;;28.80;48.40;;;;;;5070300;28;20041;-66
2022/07/19 09:53:05;;;;;;;0.00;0.00;;;28.90;49.70;;;;;;5062797;28;20058;-66
2022/07/19 09:55:31;;;;;;;0.30;0.30;;;29.00;48.10;;;;;;5055049;28;20041;-67
2022/07/19 09:57:58;;;;;;;0.00;0.00;;;29.00;49.20;;;;;;5052543;28;20123;-67
2022/07/19 10:00:25;;;;;;;0.00;0.00;;;29.10;50.80;;;;;;5053884;28;20041;-67
2022/07/19 10:02:55;;;;;;;0.00;0.00;;;29.20;48.80;;;;;;5055566;28;20454;-67
2022/07/19 10:05:23;;;;;;;0.00;0.00;;;29.30;48.60;;;;;;5064535;28;20413;-67
2022/07/19 10:07:49;;;;;;;0.10;0.10;;;29.40;46.20;;;;;;5069381;28;20454;-67
2022/07/19 10:10:18;;;;;;;0.00;0.00;;;29.50;47.00;;;;;;5070788;28;20052;-67
2022/07/19 10:12:45;;;;;;;0.00;0.00;;;29.60;48.60;;;;;;5061266;28;20049;-71
2022/07/19 10:15:15;;;;;;;0.00;0.00;;;29.70;45.00;;;;;;5050986;28;20789;-67
2022/07/19 10:18:12;;;;;;;0.00;0.00;;;29.70;44.70;;;;;;5051944;28;20045;-67
2022/07/19 10:20:39;;;;;;;0.00;0.00;;;29.90;46.10;;;;;;5066906;28;20052;-67
2022/07/19 10:23:05;;;;;;;0.00;0.00;;;30.00;46.50;;;;;;5059225;28;20060;-67
2022/07/19 10:25:45;;;;;;;0.00;0.00;;;30.00;45.90;;;;;;5050215;28;20037;-66
2022/07/19 10:28:40;;;;;;;0.00;0.00;;;30.10;46.20;;;;;;5054219;28;20047;-66
2022/07/19 10:31:27;;;;;;;0.00;0.00;;;30.20;43.80;;;;;;5056832;28;20041;-67
2022/07/19 10:34:20;;;;;;;0.00;0.00;;;30.30;45.60;;;;;;5054514;28;20059;-66
2022/07/19 10:36:48;;;;;;;0.00;0.00;;;30.40;43.70;;;;;;5070054;28;20040;-66
2022/07/19 10:39:33;;;;;;;0.00;0.00;;;30.50;45.40;;;;;;5070333;28;20072;-66
2022/07/19 10:42:23;;;;;;;0.03;0.03;;;30.50;44.10;;;;;;5066064;28;20055;-67
2022/07/19 10:44:55;;;;;;;0.00;0.00;;;30.50;41.90;;;;;;5064330;28;20082;-66
2022/07/19 10:47:40;;;;;;;0.20;0.20;;;30.70;42.90;;;;;;5061417;28;20045;-67
2022/07/19 10:50:10;;;;;;;0.10;0.10;;;30.80;44.30;;;;;;5042037;28;20041;-67
2022/07/19 10:52:38;;;;;;;0.00;0.00;;;30.90;42.50;;;;;;5051536;28;20041;-67
2022/07/19 10:55:25;;;;;;;0.00;0.00;;;31.00;41.80;;;;;;5064881;28;20298;-67
2022/07/19 10:57:58;;;;;;;0.00;0.00;;;31.10;41.50;;;;;;5067836;28;20115;-67
2022/07/19 11:00:26;;;;;;;0.00;0.00;;;31.10;41.80;;;;;;5067663;28;20047;-67
2022/07/19 11:03:13;;;;;;;0.00;0.00;;;31.20;40.80;;;;;;5049349;28;20052;-67
2022/07/19 11:05:47;;;;;;;0.10;0.10;;;31.30;42.10;;;;;;5048991;28;20048;-67
2022/07/19 11:08:13;;;;;;;0.00;0.00;;;31.50;40.80;;;;;;5065167;28;20046;-67
2022/07/19 11:10:39;;;;;;;0.00;0.00;;;31.50;42.20;;;;;;5065136;28;20468;-66
2022/07/19 11:13:05;;;;;;;0.00;0.00;;;31.50;40.50;;;;;;5049379;28;20071;-67
2022/07/19 11:15:31;;;;;;;0.00;0.00;;;31.60;41.60;;;;;;5057420;28;20037;-67
2022/07/19 11:18:07;;;;;;;0.00;0.00;;;31.80;41.40;;;;;;5068263;28;20040;-67
2022/07/19 11:20:36;;;;;;;0.00;0.00;;;31.80;40.90;;;;;;5048957;28;20037;-67
2022/07/19 11:23:05;;;;;;;0.00;0.00;;;31.90;39.70;;;;;;5051328;28;20112;-67
2022/07/19 11:25:36;;;;;;;0.00;0.00;;;32.00;40.40;;;;;;5062568;28;20037;-67
2022/07/19 11:28:02;;;;;;;0.22;0.22;;;32.10;39.30;;;;;;5060732;28;20090;-67
2022/07/19 11:30:32;;;;;;;0.00;0.00;;;32.20;39.80;;;;;;5060165;28;20051;-66
2022/07/19 11:33:04;;;;;;;0.08;0.00;;;32.20;40.60;;;;;;5062315;28;20041;-66
2022/07/19 11:35:30;;;;;;;0.00;0.00;;;32.20;40.40;;;;;;5049589;28;20044;-67
2022/07/19 11:37:58;;;;;;;0.00;0.00;;;32.30;39.50;;;;;;5049955;28;20378;-67
2022/07/19 11:40:31;;;;;;;0.00;0.00;;;32.40;37.70;;;;;;5063155;28;20040;-66
2022/07/19 11:42:56;;;;;;;0.25;0.05;;;32.50;39.20;;;;;;5069150;28;20041;-67
2022/07/19 11:45:25;;;;;;;0.00;0.00;;;32.50;38.00;;;;;;5052752;28;20048;-67
2022/07/19 11:47:53;;;;;;;0.00;0.00;;;32.60;40.20;;;;;;5052680;28;20044;-66
2022/07/19 11:50:21;;;;;;;0.00;0.00;;;32.60;35.60;;;;;;5052966;28;20521;-67
2022/07/19 11:52:51;;;;;;;0.00;0.00;;;32.70;37.00;;;;;;5062751;28;20041;-67
2022/07/19 11:55:26;;;;;;;0.00;0.00;;;32.90;37.70;;;;;;5055988;28;20056;-66
2022/07/19 11:57:53;;;;;;;0.00;0.00;;;33.00;39.40;;;;;;5047735;28;20088;-65
2022/07/19 12:00:20;;;;;;;0.00;0.00;;;33.00;37.90;;;;;;5050264;28;20063;-65
2022/07/19 12:02:58;;;;;;;0.00;0.00;;;33.00;38.10;;;;;;5051284;28;20041;-65
2022/07/19 12:05:27;;;;;;;0.00;0.00;;;33.10;38.00;;;;;;5048950;28;20398;-66
2022/07/19 12:07:56;;;;;;;0.08;0.08;;;33.20;38.70;;;;;;5048761;28;20037;-65
2022/07/19 12:10:43;;;;;;;0.00;0.00;;;33.20;36.60;;;;;;5055822;28;20071;-65
2022/07/19 12:13:15;;;;;;;0.00;0.00;;;33.40;36.90;;;;;;5056784;28;20097;-67
2022/07/19 12:15:52;;;;;;;0.00;0.00;;;33.40;36.30;;;;;;5064879;28;20121;-65
2022/07/19 12:18:41;;;;;;;0.00;0.00;;;33.50;35.40;;;;;;5062348;28;20037;-66
2022/07/19 12:21:24;;;;;;;0.00;0.00;;;33.50;35.50;;;;;;5048559;28;20056;-65
2022/07/19 12:24:22;;;;;;;0.00;0.00;;;33.70;35.90;;;;;;5066100;28;20076;-65
2022/07/19 12:27:03;;;;;;;0.00;0.00;;;33.80;34.90;;;;;;5068333;28;20049;-65
2022/07/19 12:29:41;;;;;;;1.98;0.45;;;33.80;34.80;;;;;;5051875;28;20061;-66
2022/07/19 12:32:10;;;;;;;0.00;0.00;;;33.90;37.50;;;;;;5048433;28;20544;-65
2022/07/19 12:34:41;;;;;;;0.00;0.00;;;34.00;36.80;;;;;;5054487;28;20063;-65
2022/07/19 12:37:27;;;;;;;0.00;0.00;;;34.00;35.60;;;;;;5059484;28;20036;-66
2022/07/19 12:40:08;;;;;;;1.55;0.40;;;34.00;35.30;;;;;;5058605;28;20076;-65
2022/07/19 12:42:47;;;;;;;;;;;34.10;37.40;;;;;;5048405;28;20110;-66
2022/07/19 12:45:21;;;;;;;0.00;0.00;;;34.20;35.70;;;;;;5071501;28;19924;-65
2022/07/19 12:47:48;;;;;;;0.00;0.00;;;34.30;35.90;;;;;;5055424;28;20044;-65
2022/07/19 12:50:22;;;;;;;0.00;0.00;;;34.30;36.20;;;;;;5062821;28;20095;-66
2022/07/19 12:52:48;;;;;;;0.00;0.00;;;34.40;35.60;;;;;;5063937;28;20072;-66
2022/07/19 12:55:14;;;;;;;0.00;0.00;;;34.50;36.20;;;;;;5063636;28;20045;-65
2022/07/19 12:57:39;;;;;;;0.00;0.00;;;34.50;34.10;;;;;;5070699;28;20040;-66